createdAt,value
2023-04-23T00:01:07.143Z,18.60
2023-04-23T00:03:34.800Z,15.37
2023-04-23T00:06:11.292Z,18.47
2023-04-23T00:08:39.694Z,23.83
2023-04-23T00:11:06.814Z,17.77
2023-04-23T00:13:33.825Z,26.53
2023-04-23T00:16:00.667Z,21.73
2023-04-23T00:18:27.564Z,22.57
2023-04-23T00:20:54.401Z,20.40
2023-04-23T00:23:21.457Z,23.70
2023-04-23T00:25:48.248Z,23.40
2023-04-23T00:28:15.444Z,22.57
2023-04-23T00:30:42.189Z,21.13
2023-04-23T00:33:09.006Z,21.57
2023-04-23T00:35:35.879Z,23.47
2023-04-23T00:38:02.665Z,21.87
2023-04-23T00:40:29.461Z,24.83
2023-04-23T00:42:56.615Z,23.43
2023-04-23T00:45:23.487Z,21.97
2023-04-23T00:47:50.495Z,30.80
2023-04-23T00:50:17.976Z,25.37
2023-04-23T00:52:44.760Z,26.13
2023-04-23T00:55:11.609Z,26.43
2023-04-23T00:57:38.817Z,21.60
2023-04-23T01:00:07.198Z,22.70
2023-04-23T01:02:34.947Z,20.80
2023-04-23T01:05:02.115Z,24.17
2023-04-23T01:07:28.978Z,20.83
2023-04-23T01:09:56.088Z,22.20
2023-04-23T01:12:23.391Z,23.40
2023-04-23T01:14:50.445Z,22.90
2023-04-23T01:17:17.394Z,26.33
2023-04-23T01:19:44.339Z,26.13
2023-04-23T01:22:15.087Z,21.43
2023-04-23T01:24:43.074Z,24.80
2023-04-23T01:27:10.540Z,26.63
2023-04-23T01:29:38.573Z,27.30
2023-04-23T01:32:05.535Z,23.10
2023-04-23T01:34:32.442Z,26.10
2023-04-23T01:36:59.714Z,25.80
2023-04-23T01:39:26.512Z,22.00
2023-04-23T01:41:53.787Z,27.00
2023-04-23T01:44:20.856Z,26.90
2023-04-23T01:46:47.671Z,21.47
2023-04-23T01:49:14.669Z,18.43
2023-04-23T01:51:42.279Z,25.20
2023-04-23T01:54:10.410Z,23.00
2023-04-23T01:56:37.471Z,28.73
2023-04-23T01:59:04.320Z,22.17
2023-04-23T02:01:44.799Z,26.57
2023-04-23T02:04:12.629Z,23.37
2023-04-23T02:06:39.928Z,24.97
2023-04-23T02:09:07.206Z,22.90
2023-04-23T02:11:34.200Z,20.43
2023-04-23T02:14:01.563Z,24.57
2023-04-23T02:16:28.759Z,25.57
2023-04-23T02:18:56.098Z,22.37
2023-04-23T02:21:24.527Z,21.10
2023-04-23T02:23:51.634Z,26.43
2023-04-23T02:26:19.092Z,22.63
2023-04-23T02:28:48.889Z,26.37
2023-04-23T02:31:16.751Z,24.37
2023-04-23T02:33:43.769Z,28.77
2023-04-23T02:36:13.193Z,23.83
2023-04-23T02:38:45.030Z,26.03
2023-04-23T02:41:12.502Z,26.90
2023-04-23T02:43:39.237Z,20.93
2023-04-23T02:46:09.633Z,29.07
2023-04-23T02:48:40.882Z,25.73
2023-04-23T02:51:11.936Z,21.07
2023-04-23T02:53:38.948Z,21.70
2023-04-23T02:56:06.001Z,32.57
2023-04-23T02:58:33.669Z,26.57
2023-04-23T03:01:01.822Z,24.43
2023-04-23T03:03:32.527Z,21.77
2023-04-23T03:06:02.175Z,29.07
2023-04-23T03:08:29.197Z,22.17
2023-04-23T03:10:56.055Z,25.10
2023-04-23T03:13:23.228Z,25.53
2023-04-23T03:15:50.887Z,23.53
2023-04-23T03:18:18.416Z,24.20
2023-04-23T03:20:48.528Z,24.00
2023-04-23T03:23:16.683Z,26.47
2023-04-23T03:25:44.775Z,31.70
2023-04-23T03:28:11.598Z,26.07
2023-04-23T03:30:38.508Z,23.63
2023-04-23T03:33:05.394Z,25.10
2023-04-23T03:35:32.188Z,23.73
2023-04-23T03:38:01.530Z,24.10
2023-04-23T03:40:28.705Z,21.53
2023-04-23T03:42:59.339Z,28.27
2023-04-23T03:45:43.371Z,24.47
2023-04-23T03:48:10.636Z,27.23
2023-04-23T03:50:40.663Z,22.77
2023-04-23T03:53:20.702Z,28.23
2023-04-23T03:56:07.825Z,18.53
2023-04-23T03:58:45.308Z,25.43
2023-04-23T04:01:12.319Z,27.53
2023-04-23T04:03:39.176Z,27.53
2023-04-23T04:06:06.153Z,26.53
2023-04-23T04:08:32.962Z,29.03
2023-04-23T04:11:00.488Z,24.93
2023-04-23T04:13:27.448Z,28.70
2023-04-23T04:15:54.365Z,25.60
2023-04-23T04:18:21.229Z,30.90
2023-04-23T04:20:48.000Z,29.80
2023-04-23T04:23:14.857Z,29.03
2023-04-23T04:25:42.376Z,25.10
2023-04-23T04:28:12.027Z,32.47
2023-04-23T04:30:39.659Z,31.33
2023-04-23T04:33:06.466Z,26.97
2023-04-23T04:35:33.221Z,29.67
2023-04-23T04:38:00.183Z,26.00
2023-04-23T04:40:27.298Z,29.87
2023-04-23T04:42:55.239Z,28.77
2023-04-23T04:45:22.164Z,27.23
2023-04-23T04:47:48.975Z,28.67
2023-04-23T04:50:15.870Z,28.20
2023-04-23T04:52:42.688Z,34.07
2023-04-23T04:55:09.841Z,31.07
2023-04-23T04:57:36.776Z,33.73
2023-04-23T05:00:19.030Z,33.20
2023-04-23T05:02:47.413Z,36.90
2023-04-23T05:05:14.346Z,36.77
2023-04-23T05:07:41.208Z,30.57
2023-04-23T05:10:08.087Z,29.20
2023-04-23T05:12:34.982Z,33.40
2023-04-23T05:15:01.844Z,26.80
2023-04-23T05:17:28.655Z,27.47
2023-04-23T05:19:55.651Z,25.40
2023-04-23T05:22:22.548Z,30.13
2023-04-23T05:24:49.524Z,23.97
2023-04-23T05:27:16.264Z,25.20
2023-04-23T05:29:43.057Z,21.87
2023-04-23T05:32:10.040Z,22.40
2023-04-23T05:34:36.949Z,25.50
2023-04-23T05:37:03.779Z,26.57
2023-04-23T05:39:30.564Z,24.60
2023-04-23T05:41:58.328Z,22.17
2023-04-23T05:44:25.057Z,23.37
2023-04-23T05:46:51.880Z,20.27
2023-04-23T05:49:18.662Z,23.53
2023-04-23T05:51:46.689Z,23.57
2023-04-23T05:54:13.715Z,20.80
2023-04-23T05:56:40.440Z,23.20
2023-04-23T05:59:07.259Z,22.63
2023-04-23T06:01:34.054Z,19.50
2023-04-23T06:04:01.095Z,20.67
2023-04-23T06:06:28.420Z,20.33
2023-04-23T06:08:55.206Z,19.67
2023-04-23T06:11:22.521Z,22.30
2023-04-23T06:13:49.302Z,18.27
2023-04-23T06:16:16.363Z,24.40
2023-04-23T06:18:43.204Z,21.00
2023-04-23T06:21:10.053Z,21.87
2023-04-23T06:23:37.200Z,18.20
2023-04-23T06:26:04.579Z,19.30
2023-04-23T06:28:31.545Z,17.23
2023-04-23T06:31:36.727Z,23.23
2023-04-23T06:34:03.937Z,21.23
2023-04-23T06:36:30.692Z,19.07
2023-04-23T06:38:57.503Z,19.40
2023-04-23T06:41:24.818Z,19.97
2023-04-23T06:44:04.101Z,14.47
2023-04-23T06:46:41.107Z,13.97
2023-04-23T06:49:07.895Z,15.87
2023-04-23T06:51:34.889Z,18.53
2023-04-23T06:54:01.837Z,18.70
2023-04-23T06:56:28.933Z,21.40
2023-04-23T06:58:55.963Z,15.90
2023-04-23T07:01:23.165Z,30.40
2023-04-23T07:03:51.742Z,21.40
2023-04-23T07:06:18.716Z,14.33
2023-04-23T07:08:45.549Z,13.83
2023-04-23T07:11:12.445Z,13.97
2023-04-23T07:13:39.625Z,16.37
2023-04-23T07:16:06.632Z,11.30
2023-04-23T07:18:33.488Z,15.10
2023-04-23T07:21:00.502Z,16.03
2023-04-23T07:23:27.259Z,12.87
2023-04-23T07:25:54.020Z,13.77
2023-04-23T07:28:20.919Z,19.00
2023-04-23T07:30:47.740Z,14.57
2023-04-23T07:33:14.883Z,13.07
2023-04-23T07:35:41.636Z,9.60
2023-04-23T07:38:08.982Z,10.63
2023-04-23T07:40:37.211Z,8.47
2023-04-23T07:43:04.171Z,10.97
2023-04-23T07:45:31.352Z,9.90
2023-04-23T07:47:59.234Z,11.13
2023-04-23T07:50:26.177Z,10.03
2023-04-23T07:52:52.983Z,10.97
2023-04-23T07:55:22.321Z,9.57
2023-04-23T07:57:49.164Z,11.13
2023-04-23T08:00:16.005Z,10.83
2023-04-23T08:02:43.466Z,11.00
2023-04-23T08:05:10.441Z,9.80
2023-04-23T08:07:37.491Z,7.13
2023-04-23T08:10:06.323Z,12.80
2023-04-23T08:12:34.831Z,9.47
2023-04-23T08:15:02.043Z,11.47
2023-04-23T08:17:35.675Z,10.27
2023-04-23T08:20:04.073Z,6.33
2023-04-23T08:22:30.878Z,9.97
2023-04-23T08:24:57.702Z,6.73
2023-04-23T08:27:24.473Z,5.67
2023-04-23T08:29:51.967Z,7.67
2023-04-23T08:32:18.938Z,8.20
2023-04-23T08:34:45.837Z,7.80
2023-04-23T08:37:23.119Z,8.30
2023-04-23T08:39:56.930Z,8.07
2023-04-23T08:42:23.641Z,7.90
2023-04-23T08:44:51.883Z,7.10
2023-04-23T08:47:18.903Z,5.43
2023-04-23T08:49:46.721Z,9.20
2023-04-23T08:52:18.242Z,7.23
2023-04-23T08:54:46.528Z,6.73
2023-04-23T08:57:14.236Z,4.17
2023-04-23T08:59:41.548Z,4.67
2023-04-23T09:02:10.578Z,4.10
2023-04-23T09:04:37.778Z,7.80
2023-04-23T09:07:05.052Z,6.37
2023-04-23T09:09:32.471Z,6.30
2023-04-23T09:11:59.295Z,5.13
2023-04-23T09:14:26.392Z,6.07
2023-04-23T09:16:54.141Z,7.90
2023-04-23T09:19:21.365Z,5.03
2023-04-23T09:21:48.220Z,5.97
2023-04-23T09:24:16.431Z,4.37
2023-04-23T09:26:49.351Z,7.43
2023-04-23T09:29:19.382Z,3.73
2023-04-23T09:32:07.721Z,7.17
2023-04-23T09:34:35.206Z,5.73
2023-04-23T09:37:03.895Z,5.17
2023-04-23T09:39:30.865Z,2.63
2023-04-23T09:42:02.996Z,5.63
2023-04-23T09:44:31.570Z,4.13
2023-04-23T09:47:06.375Z,3.77
2023-04-23T09:49:33.214Z,5.13
2023-04-23T09:52:05.864Z,8.10
2023-04-23T09:54:33.137Z,3.70
2023-04-23T09:57:05.876Z,8.17
2023-04-23T09:59:47.005Z,5.63
2023-04-23T10:02:17.054Z,4.70
2023-04-23T10:05:22.976Z,4.97
2023-04-23T10:07:51.610Z,6.57
2023-04-23T10:10:19.434Z,15.73
2023-04-23T10:12:55.014Z,12.33
2023-04-23T10:15:23.798Z,5.40
2023-04-23T10:17:51.578Z,6.37
2023-04-23T10:20:21.209Z,4.40
2023-04-23T10:22:48.376Z,5.27
2023-04-23T10:25:15.430Z,5.73
2023-04-23T10:27:52.932Z,5.60
2023-04-23T10:30:22.072Z,7.80
2023-04-23T10:32:49.720Z,6.23
2023-04-23T10:35:16.718Z,5.60
2023-04-23T10:37:44.664Z,6.73
2023-04-23T10:40:14.544Z,6.90
2023-04-23T10:42:42.954Z,5.37
2023-04-23T10:45:30.579Z,8.47
2023-04-23T10:47:58.709Z,8.87
2023-04-23T10:50:29.354Z,9.80
2023-04-23T10:52:57.860Z,6.77
2023-04-23T10:55:26.570Z,7.97
2023-04-23T10:58:04.245Z,7.63
2023-04-23T11:00:43.873Z,5.80
2023-04-23T11:03:34.300Z,9.33
2023-04-23T11:06:02.371Z,9.10
2023-04-23T11:08:29.858Z,5.63
2023-04-23T11:11:00.595Z,6.93
2023-04-23T11:13:28.518Z,10.20
2023-04-23T11:16:14.950Z,4.53
2023-04-23T11:18:57.199Z,4.97
2023-04-23T11:21:44.042Z,6.97
2023-04-23T11:24:10.893Z,8.13
2023-04-23T11:26:38.177Z,4.53
2023-04-23T11:29:06.427Z,10.40
2023-04-23T11:31:33.304Z,10.93
2023-04-23T11:34:00.247Z,5.67
2023-04-23T11:36:27.791Z,3.93
2023-04-23T11:38:56.702Z,6.07
2023-04-23T11:41:23.736Z,8.87
2023-04-23T11:43:50.482Z,6.60
2023-04-23T11:46:17.286Z,4.80
2023-04-23T11:48:44.240Z,6.60
2023-04-23T11:51:10.959Z,5.73
2023-04-23T11:53:44.807Z,8.63
2023-04-23T11:56:11.677Z,6.73
2023-04-23T11:58:39.374Z,3.00
2023-04-23T12:01:06.344Z,5.93
2023-04-23T12:03:33.323Z,7.60
2023-04-23T12:06:00.265Z,6.60
2023-04-23T12:08:31.854Z,10.43
2023-04-23T12:11:03.249Z,7.17
2023-04-23T12:13:31.639Z,5.10
2023-04-23T12:15:59.703Z,8.27
2023-04-23T12:18:33.873Z,4.00
2023-04-23T12:21:06.930Z,7.90
2023-04-23T12:23:36.313Z,4.00
2023-04-23T12:26:07.029Z,5.93
2023-04-23T12:28:33.889Z,5.70
2023-04-23T12:31:01.786Z,6.13
2023-04-23T12:33:29.093Z,5.70
2023-04-23T12:35:57.258Z,5.43
2023-04-23T12:38:25.256Z,4.73
2023-04-23T12:40:52.769Z,7.77
2023-04-23T12:43:19.716Z,5.77
2023-04-23T12:45:46.528Z,4.23
2023-04-23T12:48:13.863Z,5.50
2023-04-23T12:50:40.673Z,5.17
2023-04-23T12:53:08.197Z,9.03
2023-04-23T12:55:34.975Z,6.30
2023-04-23T12:58:01.964Z,10.60
2023-04-23T13:00:28.768Z,6.30
2023-04-23T13:02:56.413Z,8.47
2023-04-23T13:05:23.846Z,6.67
2023-04-23T13:07:50.582Z,4.93
2023-04-23T13:10:17.370Z,7.10
2023-04-23T13:12:44.258Z,7.83
2023-04-23T13:15:12.988Z,5.20
2023-04-23T13:17:39.909Z,6.77
2023-04-23T13:20:07.415Z,5.93
2023-04-23T13:22:34.390Z,6.40
2023-04-23T13:25:01.188Z,8.47
2023-04-23T13:27:29.469Z,5.57
2023-04-23T13:29:56.515Z,3.20
2023-04-23T13:32:24.240Z,5.13
2023-04-23T13:34:51.544Z,8.10
2023-04-23T13:37:18.373Z,5.97
2023-04-23T13:39:45.450Z,7.67
2023-04-23T13:42:12.621Z,5.60
2023-04-23T13:44:39.459Z,5.70
2023-04-23T13:47:06.282Z,7.13
2023-04-23T13:49:33.032Z,11.70
2023-04-23T13:52:04.482Z,7.80
2023-04-23T13:54:31.672Z,6.63
2023-04-23T13:56:58.816Z,6.03
2023-04-23T13:59:26.164Z,6.83
2023-04-23T14:01:53.550Z,7.83
2023-04-23T14:04:21.136Z,7.60
2023-04-23T14:06:47.901Z,5.53
2023-04-23T14:09:14.914Z,8.10
2023-04-23T14:11:41.881Z,9.17
2023-04-23T14:14:08.858Z,6.20
2023-04-23T14:16:36.090Z,11.77
2023-04-23T14:19:02.854Z,6.03
2023-04-23T14:21:29.682Z,5.80
2023-04-23T14:24:01.136Z,7.73
2023-04-23T14:26:44.692Z,3.20
2023-04-23T14:29:38.692Z,8.17
2023-04-23T14:32:06.468Z,5.50
2023-04-23T14:34:35.951Z,3.63
2023-04-23T14:37:05.645Z,5.70
2023-04-23T14:39:33.625Z,6.27
2023-04-23T14:42:01.303Z,8.40
2023-04-23T14:44:28.135Z,10.73
2023-04-23T14:46:55.380Z,7.40
2023-04-23T14:49:22.450Z,8.43
2023-04-23T14:51:54.675Z,7.57
2023-04-23T14:54:22.063Z,9.80
2023-04-23T14:56:49.058Z,5.87
2023-04-23T14:59:15.848Z,7.40
2023-04-23T15:01:42.969Z,7.33
2023-04-23T15:04:12.854Z,11.87
2023-04-23T15:06:42.920Z,11.03
2023-04-23T15:09:09.782Z,5.50
2023-04-23T15:11:38.074Z,6.30
2023-04-23T15:14:07.709Z,9.00
2023-04-23T15:16:48.066Z,8.03
2023-04-23T15:19:18.355Z,6.30
2023-04-23T15:21:45.873Z,8.27
2023-04-23T15:24:12.956Z,10.30
2023-04-23T15:26:39.819Z,8.53
2023-04-23T15:29:09.232Z,7.33
2023-04-23T15:31:36.841Z,7.60
2023-04-23T15:34:06.293Z,5.77
2023-04-23T15:36:33.601Z,7.47
2023-04-23T15:39:00.575Z,6.10
2023-04-23T15:41:27.400Z,9.77
2023-04-23T15:43:55.208Z,5.93
2023-04-23T15:46:22.058Z,9.10
2023-04-23T15:48:48.960Z,14.17
2023-04-23T15:51:16.366Z,11.87
2023-04-23T15:53:43.304Z,10.47
2023-04-23T15:56:10.087Z,14.07
2023-04-23T15:58:36.870Z,6.53
2023-04-23T16:01:03.832Z,9.03
2023-04-23T16:03:30.758Z,10.47
2023-04-23T16:05:57.734Z,12.33
2023-04-23T16:08:24.475Z,7.47
2023-04-23T16:10:51.372Z,9.07
2023-04-23T16:13:18.106Z,6.73
2023-04-23T16:15:45.017Z,8.93
2023-04-23T16:18:11.925Z,6.03
2023-04-23T16:20:38.807Z,7.97
2023-04-23T16:23:06.918Z,7.07
2023-04-23T16:25:33.709Z,5.53
2023-04-23T16:28:01.144Z,6.30
2023-04-23T16:30:28.170Z,5.10
2023-04-23T16:32:55.016Z,14.97
2023-04-23T16:35:22.335Z,10.20
2023-04-23T16:37:49.201Z,11.13
2023-04-23T16:40:16.039Z,23.10
2023-04-23T16:42:43.472Z,24.47
2023-04-23T16:45:10.427Z,18.07
2023-04-23T16:47:37.336Z,9.53
2023-04-23T16:50:04.212Z,8.03
2023-04-23T16:52:31.199Z,5.83
2023-04-23T16:54:57.988Z,8.07
2023-04-23T16:57:25.640Z,7.43
2023-04-23T16:59:52.844Z,10.20
2023-04-23T17:02:21.264Z,9.67
2023-04-23T17:04:48.490Z,16.90
2023-04-23T17:07:15.809Z,19.07
2023-04-23T17:09:42.634Z,12.43
2023-04-23T17:12:09.480Z,11.03
2023-04-23T17:14:36.291Z,12.97
2023-04-23T17:17:03.109Z,18.53
2023-04-23T17:19:30.028Z,9.53
2023-04-23T17:21:56.997Z,10.83
2023-04-23T17:24:23.904Z,14.30
2023-04-23T17:26:50.680Z,13.87
2023-04-23T17:29:17.643Z,126.73
2023-04-23T17:31:44.829Z,9.97
2023-04-23T17:34:11.625Z,19.17
2023-04-23T17:36:38.550Z,17.37
2023-04-23T17:39:05.867Z,26.87
2023-04-23T17:41:32.791Z,37.00
2023-04-23T17:43:59.589Z,29.83
2023-04-23T17:46:26.529Z,17.97
2023-04-23T17:48:53.468Z,18.93
2023-04-23T17:51:21.618Z,12.97
2023-04-23T17:53:50.609Z,16.23
2023-04-23T17:56:17.455Z,10.70
2023-04-23T17:58:44.289Z,9.43
2023-04-23T18:01:11.773Z,11.87
2023-04-23T18:03:38.760Z,8.93
2023-04-23T18:06:06.050Z,12.90
2023-04-23T18:08:32.939Z,13.00
2023-04-23T18:11:00.152Z,23.00
2023-04-23T18:13:27.099Z,16.00
2023-04-23T18:15:53.924Z,16.07
2023-04-23T18:18:21.987Z,12.90
2023-04-23T18:20:49.309Z,8.83
2023-04-23T18:23:16.173Z,11.90
2023-04-23T18:25:43.093Z,10.13
2023-04-23T18:28:10.061Z,16.70
2023-04-23T18:30:37.111Z,13.33
2023-04-23T18:33:11.040Z,10.97
2023-04-23T18:35:41.023Z,14.07
2023-04-23T18:38:10.551Z,17.17
2023-04-23T18:40:37.322Z,15.00
2023-04-23T18:43:04.139Z,21.03
2023-04-23T18:45:31.119Z,19.90
2023-04-23T18:47:59.520Z,18.53
2023-04-23T18:50:37.022Z,18.93
2023-04-23T18:53:04.161Z,16.13
2023-04-23T18:55:31.285Z,19.90
2023-04-23T18:57:58.898Z,24.95
2023-04-23T19:00:25.954Z,22.53
2023-04-23T19:02:52.891Z,14.73
2023-04-23T19:05:20.105Z,10.83
2023-04-23T19:07:48.526Z,13.40
2023-04-23T19:10:16.670Z,10.70
2023-04-23T19:12:44.090Z,22.23
2023-04-23T19:15:11.216Z,20.63
2023-04-23T19:17:38.730Z,19.20
2023-04-23T19:20:06.532Z,15.07
2023-04-23T19:22:33.269Z,14.10
2023-04-23T19:25:00.193Z,15.57
2023-04-23T19:27:26.924Z,16.07
2023-04-23T19:29:54.651Z,13.53
2023-04-23T19:32:22.362Z,17.53
2023-04-23T19:34:49.149Z,22.80
2023-04-23T19:37:15.985Z,33.33
2023-04-23T19:39:43.216Z,18.90
2023-04-23T19:42:10.957Z,18.77
2023-04-23T19:44:38.042Z,12.63
2023-04-23T19:47:05.635Z,15.53
2023-04-23T19:49:32.506Z,9.83
2023-04-23T19:52:00.272Z,16.27
2023-04-23T19:54:27.005Z,18.63
2023-04-23T19:56:53.829Z,13.93
2023-04-23T19:59:21.573Z,8.63
2023-04-23T20:01:48.507Z,11.43
2023-04-23T20:04:16.227Z,8.97
2023-04-23T20:06:43.550Z,11.40
2023-04-23T20:09:18.216Z,11.03
2023-04-23T20:11:46.037Z,11.07
2023-04-23T20:14:15.756Z,11.30
2023-04-23T20:16:42.692Z,12.57
2023-04-23T20:19:12.404Z,15.87
2023-04-23T20:21:39.414Z,10.83
2023-04-23T20:24:10.546Z,8.90
2023-04-23T20:26:37.970Z,11.97
2023-04-23T20:29:05.038Z,11.47
2023-04-23T20:31:32.115Z,11.40
2023-04-23T20:33:59.059Z,10.90
2023-04-23T20:36:28.917Z,13.00
2023-04-23T20:38:58.315Z,9.53
2023-04-23T20:41:30.970Z,14.60
2023-04-23T20:43:58.582Z,17.53
2023-04-23T20:46:26.292Z,19.97
2023-04-23T20:48:53.168Z,11.93
2023-04-23T20:51:20.368Z,12.70
2023-04-23T20:53:47.491Z,18.37
2023-04-23T20:56:14.894Z,17.80
2023-04-23T20:58:42.028Z,14.87
2023-04-23T21:01:11.493Z,12.40
2023-04-23T21:03:39.182Z,15.10
2023-04-23T21:06:10.410Z,17.50
2023-04-23T21:08:42.934Z,10.57
2023-04-23T21:11:19.802Z,13.60
2023-04-23T21:13:47.043Z,17.80
2023-04-23T21:16:14.142Z,10.63
2023-04-23T21:18:41.298Z,15.73
2023-04-23T21:21:08.307Z,13.37
2023-04-23T21:23:35.780Z,16.07
2023-04-23T21:26:02.707Z,17.97
2023-04-23T21:28:29.614Z,14.80
2023-04-23T21:30:57.044Z,17.07
2023-04-23T21:33:24.762Z,13.47
2023-04-23T21:35:52.908Z,14.57
2023-04-23T21:38:20.055Z,15.17
2023-04-23T21:40:47.054Z,15.70
2023-04-23T21:43:14.300Z,17.47
2023-04-23T21:45:41.386Z,13.37
2023-04-23T21:48:08.245Z,17.93
2023-04-23T21:50:35.257Z,17.83
2023-04-23T21:53:03.354Z,18.37
2023-04-23T21:55:31.648Z,18.10
2023-04-23T21:58:09.913Z,16.53
2023-04-23T22:00:44.743Z,17.63
2023-04-23T22:03:13.403Z,19.70
2023-04-23T22:05:46.833Z,19.40
2023-04-23T22:08:14.033Z,18.03
2023-04-23T22:10:43.407Z,21.20
2023-04-23T22:13:11.270Z,18.67
2023-04-23T22:15:38.567Z,25.83
2023-04-23T22:18:05.628Z,19.17
2023-04-23T22:20:32.694Z,20.17
2023-04-23T22:22:59.519Z,18.33
2023-04-23T22:25:26.455Z,17.70
2023-04-23T22:27:53.414Z,17.40
2023-04-23T22:30:20.620Z,14.53
2023-04-23T22:32:47.512Z,16.93
2023-04-23T22:35:14.535Z,13.30
2023-04-23T22:37:41.940Z,13.67
2023-04-23T22:40:09.816Z,13.47
2023-04-23T22:42:37.663Z,14.27
2023-04-23T22:45:05.236Z,16.43
2023-04-23T22:47:32.268Z,19.07
2023-04-23T22:49:59.468Z,15.50
2023-04-23T22:52:27.134Z,16.43
2023-04-23T22:54:55.137Z,15.77
2023-04-23T22:57:22.012Z,23.17
2023-04-23T22:59:48.917Z,15.93
2023-04-23T23:02:16.271Z,19.23
2023-04-23T23:04:43.242Z,16.20
2023-04-23T23:07:10.224Z,17.03
2023-04-23T23:09:36.935Z,19.87
2023-04-23T23:12:04.223Z,20.43
2023-04-23T23:14:32.413Z,17.73
2023-04-23T23:16:59.205Z,18.27
2023-04-23T23:19:29.018Z,17.07
2023-04-23T23:21:55.871Z,15.80
2023-04-23T23:24:23.198Z,15.00
2023-04-23T23:26:50.631Z,13.33
2023-04-23T23:29:17.583Z,14.50
2023-04-23T23:31:44.444Z,16.23
2023-04-23T23:34:11.574Z,13.60
2023-04-23T23:36:38.476Z,16.57
2023-04-23T23:39:06.958Z,15.57
2023-04-23T23:41:33.970Z,20.83
2023-04-23T23:44:00.821Z,11.67
2023-04-23T23:46:27.860Z,14.47
2023-04-23T23:48:54.772Z,12.70
2023-04-23T23:51:21.772Z,22.00
2023-04-23T23:53:48.510Z,13.70
2023-04-23T23:56:15.489Z,12.03
2023-04-23T23:58:42.311Z,13.43
